Time;durP1;ratioP1;P1;durP2;ratioP2;P2;SDS_P1;SDS_P2;PMS_P1;PMS_P2;Temp;Humidity;BMP_temperature;BMP_pressure;BME280_temperature;BME280_humidity;BME280_pressure;Samples;Min_cycle;Max_cycle;Signal;HPM_P1;HPM_P2
2023/07/26 00:01:04;;;;;;;17.73;6.28;;;22.80;99.90;;;;;;5091371;28;20025;-76
2023/07/26 00:03:30;;;;;;;15.38;6.40;;;22.70;99.90;;;;;;5093894;28;20429;-76
2023/07/26 00:05:56;;;;;;;15.02;6.30;;;22.60;99.90;;;;;;5091638;28;20008;-76
2023/07/26 00:08:21;;;;;;;19.38;6.63;;;22.60;99.90;;;;;;5092850;28;20378;-76
2023/07/26 00:10:48;;;;;;;17.88;6.32;;;22.60;99.90;;;;;;5093930;28;20086;-74
2023/07/26 00:13:16;;;;;;;17.42;6.50;;;22.50;99.90;;;;;;5096637;28;20384;-74
2023/07/26 00:15:42;;;;;;;13.95;6.75;;;22.40;99.90;;;;;;5093659;28;20027;-75
2023/07/26 00:18:08;;;;;;;13.48;6.22;;;22.40;99.90;;;;;;5092775;28;20391;-76
2023/07/26 00:20:34;;;;;;;16.23;7.10;;;22.30;99.90;;;;;;5093980;28;20108;-77
2023/07/26 00:23:00;;;;;;;13.63;7.03;;;22.10;99.90;;;;;;5097700;28;20077;-72
2023/07/26 00:25:26;;;;;;;13.05;6.50;;;22.20;99.90;;;;;;5093464;28;20028;-76
2023/07/26 00:27:52;;;;;;;16.65;6.60;;;;;;;;;;5093025;28;20094;-75
2023/07/26 00:30:18;;;;;;;14.25;7.20;;;22.00;99.90;;;;;;5093060;28;20733;-76
2023/07/26 00:32:43;;;;;;;13.40;6.43;;;21.90;99.90;;;;;;5101364;28;20016;-75
2023/07/26 00:35:19;;;;;;;15.70;7.30;;;21.90;99.90;;;;;;5093141;28;20024;-76
2023/07/26 00:37:47;;;;;;;16.73;7.18;;;21.90;99.90;;;;;;5092467;28;20446;-74
2023/07/26 00:40:12;;;;;;;17.40;7.47;;;21.90;99.90;;;;;;5073468;28;20147;-76
2023/07/26 00:42:38;;;;;;;17.55;6.97;;;21.90;99.90;;;;;;5092986;28;20130;-76
2023/07/26 00:45:04;;;;;;;15.52;7.60;;;21.90;99.90;;;;;;5074463;28;20031;-73
2023/07/26 00:47:30;;;;;;;19.50;7.00;;;21.90;99.90;;;;;;5074685;28;20028;-76
2023/07/26 00:49:56;;;;;;;13.95;7.35;;;21.90;99.90;;;;;;5097202;28;20074;-76
2023/07/26 00:52:25;;;;;;;14.13;6.78;;;21.90;99.90;;;;;;5099858;28;20505;-76
2023/07/26 00:54:55;;;;;;;16.23;7.70;;;21.90;99.90;;;;;;5092593;28;20012;-75
2023/07/26 00:57:21;;;;;;;18.88;8.38;;;22.00;99.90;;;;;;5101315;28;20034;-76
2023/07/26 00:59:47;;;;;;;19.00;8.23;;;22.00;99.90;;;;;;5078339;28;20423;-76
2023/07/26 01:02:13;;;;;;;13.80;7.50;;;22.10;99.90;;;;;;5074519;28;20039;-76
2023/07/26 01:04:38;;;;;;;13.63;6.57;;;22.10;99.90;;;;;;5077185;28;20127;-76
2023/07/26 01:07:31;;;;;;;15.70;6.25;;;22.10;99.90;;;;;;5074321;28;20395;-76
2023/07/26 01:10:16;;;;;;;14.02;6.65;;;22.00;99.90;;;;;;5092590;28;20020;-76
2023/07/26 01:13:04;;;;;;;15.02;6.15;;;21.90;99.90;;;;;;5092451;28;20074;-76
2023/07/26 01:15:35;;;;;;;14.63;5.85;;;21.90;99.90;;;;;;5091483;28;20520;-76
2023/07/26 01:18:12;;;;;;;13.43;6.05;;;21.90;99.90;;;;;;5091315;28;20027;-76
2023/07/26 01:20:38;;;;;;;14.82;6.25;;;21.90;99.90;;;;;;5092160;28;20027;-77
2023/07/26 01:23:04;;;;;;;13.60;5.88;;;21.90;99.90;;;;;;5094974;28;20040;-76
2023/07/26 01:25:33;;;;;;;10.07;5.10;;;21.90;99.90;;;;;;5074288;28;20028;-76
2023/07/26 01:27:59;;;;;;;14.10;6.13;;;;;;;;;;5092049;28;21738;-76
2023/07/26 01:30:31;;;;;;;13.48;5.47;;;21.70;99.90;;;;;;5092169;28;20023;-77
2023/07/26 01:33:05;;;;;;;11.55;4.60;;;21.70;99.90;;;;;;5089595;28;20034;-76
2023/07/26 01:35:32;;;;;;;17.42;6.00;;;21.60;99.90;;;;;;5090812;28;20039;-76
2023/07/26 01:37:59;;;;;;;8.52;4.63;;;21.60;99.90;;;;;;5091492;28;20046;-75
2023/07/26 01:40:26;;;;;;;10.35;4.90;;;21.60;99.90;;;;;;5091206;28;20046;-76
2023/07/26 01:42:52;;;;;;;11.60;4.35;;;21.50;99.90;;;;;;5091753;28;20044;-75
2023/07/26 01:45:19;;;;;;;11.65;4.35;;;21.40;99.90;;;;;;5090144;28;20039;-76
2023/07/26 01:47:45;;;;;;;10.93;4.85;;;21.40;99.90;;;;;;5096628;28;20486;-76
2023/07/26 01:50:11;;;;;;;10.45;4.90;;;21.40;99.90;;;;;;5075626;28;20072;-77
2023/07/26 01:52:37;;;;;;;15.18;4.75;;;21.50;99.90;;;;;;5093909;28;20031;-77
2023/07/26 01:55:03;;;;;;;11.45;4.72;;;21.50;99.90;;;;;;5090798;28;20024;-76
2023/07/26 01:57:29;;;;;;;8.75;4.25;;;21.60;99.90;;;;;;5091179;28;20074;-77
2023/07/26 01:59:54;;;;;;;9.73;3.90;;;21.50;99.90;;;;;;5091508;28;20537;-76
2023/07/26 02:02:20;;;;;;;9.45;3.88;;;21.40;99.90;;;;;;5091512;28;20051;-76
2023/07/26 02:04:47;;;;;;;9.57;3.95;;;21.50;99.90;;;;;;5094310;28;20475;-76
2023/07/26 02:07:12;;;;;;;13.23;4.40;;;21.50;99.90;;;;;;5094121;28;20024;-76
2023/07/26 02:09:38;;;;;;;11.07;4.03;;;21.40;99.90;;;;;;5073258;28;20046;-77
2023/07/26 02:12:05;;;;;;;10.25;4.05;;;21.40;99.90;;;;;;5090851;28;20102;-76
2023/07/26 02:14:31;;;;;;;9.32;4.20;;;21.40;99.90;;;;;;5098419;28;20056;-74
2023/07/26 02:16:56;;;;;;;7.70;3.75;;;21.40;99.90;;;;;;5089329;28;20161;-76
2023/07/26 02:19:22;;;;;;;9.07;4.00;;;21.40;99.90;;;;;;5094828;28;20020;-76
2023/07/26 02:21:48;;;;;;;8.05;4.03;;;21.30;99.90;;;;;;5088843;28;20040;-76
2023/07/26 02:24:14;;;;;;;6.93;3.35;;;21.40;99.90;;;;;;5072793;28;20024;-76
2023/07/26 02:26:40;;;;;;;8.27;4.10;;;21.40;99.90;;;;;;5090739;28;20027;-76
2023/07/26 02:29:08;;;;;;;7.88;3.60;;;21.30;99.90;;;;;;5076506;28;20104;-76
2023/07/26 02:31:33;;;;;;;8.75;3.65;;;21.30;99.90;;;;;;5090800;28;20459;-76
2023/07/26 02:33:59;;;;;;;13.02;4.47;;;21.30;99.90;;;;;;5089515;28;20071;-77
2023/07/26 02:36:25;;;;;;;6.65;3.13;;;21.30;99.90;;;;;;5090975;28;20020;-76
2023/07/26 02:38:51;;;;;;;7.70;3.80;;;21.20;99.90;;;;;;5090769;28;20506;-77
2023/07/26 02:41:17;;;;;;;5.15;2.85;;;21.20;99.90;;;;;;5090412;28;20509;-76
2023/07/26 02:43:43;;;;;;;12.95;3.40;;;21.20;99.90;;;;;;5093378;28;20032;-76
2023/07/26 02:46:09;;;;;;;9.05;3.72;;;21.10;99.90;;;;;;5090084;28;20119;-78
2023/07/26 02:48:36;;;;;;;8.80;3.65;;;21.10;99.90;;;;;;5089655;28;21599;-75
2023/07/26 02:51:01;;;;;;;7.40;3.67;;;21.10;99.90;;;;;;5090613;28;20020;-74
2023/07/26 02:53:27;;;;;;;7.03;3.63;;;21.10;99.90;;;;;;5093507;28;20423;-76
2023/07/26 02:55:53;;;;;;;8.07;3.75;;;21.10;99.90;;;;;;5090666;28;20467;-76
2023/07/26 02:58:19;;;;;;;6.78;3.65;;;21.10;99.90;;;;;;5072971;28;20063;-77
2023/07/26 03:00:46;;;;;;;6.70;3.03;;;21.00;99.90;;;;;;5071327;28;20028;-77
2023/07/26 03:03:11;;;;;;;10.38;4.13;;;21.00;99.90;;;;;;5071919;28;20118;-75
2023/07/26 03:05:38;;;;;;;8.60;3.65;;;20.90;99.90;;;;;;5098322;28;21129;-77
2023/07/26 03:08:04;;;;;;;12.13;4.20;;;20.90;99.90;;;;;;5095227;28;20038;-75
2023/07/26 03:10:31;;;;;;;10.88;3.85;;;20.90;99.90;;;;;;5094680;28;20054;-76
2023/07/26 03:12:57;;;;;;;6.88;4.05;;;20.80;99.90;;;;;;5090817;28;20055;-76
2023/07/26 03:15:23;;;;;;;10.13;4.43;;;20.70;99.90;;;;;;5089968;28;20024;-77
2023/07/26 03:17:50;;;;;;;8.45;4.10;;;20.70;99.90;;;;;;5071618;28;20035;-77
2023/07/26 03:20:16;;;;;;;11.35;5.25;;;20.80;99.90;;;;;;5093169;28;20403;-77
2023/07/26 03:22:42;;;;;;;8.57;4.20;;;20.70;99.90;;;;;;5089754;28;20071;-77
2023/07/26 03:25:08;;;;;;;8.50;4.22;;;20.80;99.90;;;;;;5071704;28;20050;-77
2023/07/26 03:27:34;;;;;;;9.20;4.93;;;20.80;99.90;;;;;;5089256;28;20028;-76
2023/07/26 03:30:00;;;;;;;7.70;4.32;;;20.80;99.90;;;;;;5089010;28;20594;-76
2023/07/26 03:32:26;;;;;;;7.20;4.38;;;20.80;99.90;;;;;;5090005;28;20066;-79
2023/07/26 03:34:51;;;;;;;8.57;4.15;;;20.90;99.90;;;;;;5090343;28;20020;-76
2023/07/26 03:37:17;;;;;;;8.88;4.00;;;20.90;99.90;;;;;;5094273;28;20486;-77
2023/07/26 03:39:43;;;;;;;6.85;4.20;;;21.00;99.90;;;;;;5090157;28;20030;-77
2023/07/26 03:42:09;;;;;;;10.68;4.72;;;20.90;99.90;;;;;;5091399;28;20054;-77
2023/07/26 03:44:35;;;;;;;8.63;3.75;;;20.90;99.90;;;;;;5091919;28;20040;-77
2023/07/26 03:47:00;;;;;;;11.45;4.38;;;20.90;99.90;;;;;;5094270;28;20059;-77
2023/07/26 03:49:26;;;;;;;9.48;4.50;;;21.00;99.90;;;;;;5093765;28;20024;-77
2023/07/26 03:51:52;;;;;;;7.15;4.07;;;21.00;99.90;;;;;;5076685;28;20039;-76
2023/07/26 03:54:18;;;;;;;6.90;3.70;;;21.10;99.90;;;;;;5097403;28;20055;-75
2023/07/26 03:56:44;;;;;;;8.43;4.28;;;21.10;99.90;;;;;;5114571;28;20450;-77
2023/07/26 03:59:09;;;;;;;8.65;4.63;;;21.00;99.90;;;;;;5115637;28;20024;-76
2023/07/26 04:01:38;;;;;;;9.43;4.68;;;21.00;99.90;;;;;;5115127;28;20081;-76
2023/07/26 04:04:04;;;;;;;13.13;4.78;;;21.00;99.90;;;;;;5114649;28;20027;-76
2023/07/26 04:06:30;;;;;;;8.60;3.88;;;21.10;99.90;;;;;;5115548;28;20019;-77
2023/07/26 04:08:56;;;;;;;9.88;4.50;;;21.10;99.90;;;;;;5115316;28;20543;-75
2023/07/26 04:11:22;;;;;;;6.22;3.28;;;21.00;99.90;;;;;;5115115;28;20028;-77
2023/07/26 04:13:48;;;;;;;10.00;3.95;;;20.90;99.90;;;;;;5115534;28;20019;-77
2023/07/26 04:16:20;;;;;;;5.13;3.60;;;20.90;99.90;;;;;;5114815;28;20036;-73
2023/07/26 04:18:47;;;;;;;6.88;3.50;;;20.90;99.90;;;;;;5115287;28;20372;-76
2023/07/26 04:21:14;;;;;;;4.45;2.53;;;20.90;99.90;;;;;;5114986;28;20394;-75
2023/07/26 04:23:41;;;;;;;6.68;2.72;;;20.80;99.90;;;;;;5114909;28;20391;-76
2023/07/26 04:26:07;;;;;;;7.88;3.58;;;20.90;99.90;;;;;;5115156;28;20065;-76
2023/07/26 04:28:33;;;;;;;6.28;2.67;;;20.90;99.90;;;;;;5114940;28;20085;-73
2023/07/26 04:30:59;;;;;;;5.15;3.03;;;20.80;99.90;;;;;;5114786;28;20463;-76
2023/07/26 04:33:24;;;;;;;5.93;2.97;;;20.70;99.90;;;;;;5096318;28;20051;-74
2023/07/26 04:35:51;;;;;;;5.53;2.75;;;20.70;99.90;;;;;;5114827;28;20073;-76
2023/07/26 04:38:21;;;;;;;6.60;2.90;;;20.70;99.90;;;;;;5114394;28;20034;-77
2023/07/26 04:40:47;;;;;;;4.70;2.38;;;20.70;99.90;;;;;;5114770;28;20054;-72
2023/07/26 04:43:19;;;;;;;4.93;2.42;;;20.70;99.90;;;;;;5114514;28;20078;-76
2023/07/26 04:45:47;;;;;;;4.15;2.47;;;20.70;99.90;;;;;;5114711;28;20024;-76
2023/07/26 04:48:13;;;;;;;5.82;2.42;;;20.70;99.90;;;;;;5114364;28;20027;-72
2023/07/26 04:50:39;;;;;;;4.05;2.55;;;20.70;99.90;;;;;;5114455;28;20027;-76
2023/07/26 04:53:05;;;;;;;4.00;2.03;;;20.70;99.90;;;;;;5114031;28;20043;-75
2023/07/26 04:55:31;;;;;;;6.07;2.55;;;20.80;99.90;;;;;;5114613;28;20015;-77
2023/07/26 04:57:57;;;;;;;3.50;2.03;;;20.90;99.90;;;;;;5114417;28;20020;-74
2023/07/26 05:00:23;;;;;;;6.70;2.65;;;20.80;99.90;;;;;;5114498;28;20073;-76
2023/07/26 05:02:49;;;;;;;3.47;2.03;;;20.70;99.90;;;;;;5095559;28;20046;-73
2023/07/26 05:05:15;;;;;;;4.30;2.40;;;20.70;99.90;;;;;;5113871;28;20024;-75
2023/07/26 05:07:41;;;;;;;7.45;2.38;;;20.70;99.90;;;;;;5113656;28;20043;-76
2023/07/26 05:10:07;;;;;;;7.57;2.92;;;20.70;99.90;;;;;;5109681;28;20028;-73
2023/07/26 05:12:33;;;;;;;3.15;2.10;;;20.60;99.90;;;;;;5114396;28;20035;-76
2023/07/26 05:14:58;;;;;;;8.15;2.90;;;20.70;99.90;;;;;;5113919;28;20027;-75
2023/07/26 05:17:24;;;;;;;3.50;2.25;;;20.70;99.90;;;;;;5114061;28;20023;-76
2023/07/26 05:19:50;;;;;;;12.82;2.85;;;20.80;99.90;;;;;;5113925;28;20474;-76
2023/07/26 05:22:16;;;;;;;3.75;2.47;;;20.80;99.90;;;;;;5113276;28;20031;-75
2023/07/26 05:24:42;;;;;;;8.00;3.10;;;21.20;99.90;;;;;;5113551;28;20460;-76
2023/07/26 05:27:07;;;;;;;5.63;2.60;;;21.30;99.90;;;;;;5113906;28;20478;-76
2023/07/26 05:29:33;;;;;;;4.20;2.42;;;21.30;99.90;;;;;;5113330;28;20679;-76
2023/07/26 05:31:59;;;;;;;6.15;3.35;;;21.40;99.90;;;;;;5106517;28;20019;-76
2023/07/26 05:34:25;;;;;;;6.22;2.72;;;21.40;99.90;;;;;;5096520;28;20082;-75
2023/07/26 05:36:51;;;;;;;3.33;2.30;;;21.50;99.90;;;;;;5102860;28;20024;-75
2023/07/26 05:39:17;;;;;;;8.25;2.97;;;21.50;99.90;;;;;;5113516;28;20023;-76
2023/07/26 05:41:42;;;;;;;5.20;2.83;;;21.30;99.90;;;;;;5112944;28;20043;-74
2023/07/26 05:44:08;;;;;;;6.85;2.33;;;21.40;99.90;;;;;;5113652;28;20040;-75
2023/07/26 05:46:34;;;;;;;5.20;2.35;;;21.30;99.90;;;;;;5113134;28;20076;-76
2023/07/26 05:49:00;;;;;;;4.32;2.92;;;21.30;99.90;;;;;;5111110;28;20107;-76
2023/07/26 05:51:26;;;;;;;3.30;2.47;;;21.30;99.90;;;;;;5095269;28;20027;-73
2023/07/26 05:53:51;;;;;;;5.18;2.50;;;21.30;99.90;;;;;;5097170;28;20039;-74
2023/07/26 05:56:17;;;;;;;9.07;3.08;;;21.20;99.90;;;;;;5102149;28;20432;-76
2023/07/26 05:58:43;;;;;;;7.50;3.20;;;21.30;99.90;;;;;;5109865;28;20031;-74
2023/07/26 06:01:09;;;;;;;8.95;2.80;;;21.50;99.90;;;;;;5104947;28;20035;-74
2023/07/26 06:03:35;;;;;;;4.50;2.50;;;21.70;99.90;;;;;;5097804;28;20039;-74
2023/07/26 06:06:01;;;;;;;4.63;2.55;;;21.90;99.90;;;;;;5102853;28;20028;-74
2023/07/26 06:08:27;;;;;;;4.40;2.83;;;22.30;99.90;;;;;;5092970;28;20051;-74
2023/07/26 06:10:53;;;;;;;4.63;2.58;;;22.40;99.90;;;;;;5092560;28;20400;-73
2023/07/26 06:13:19;;;;;;;5.00;2.78;;;22.20;99.90;;;;;;5112102;28;20080;-74
2023/07/26 06:15:44;;;;;;;5.93;2.28;;;22.30;99.90;;;;;;5101558;28;20027;-75
2023/07/26 06:18:10;;;;;;;3.58;2.40;;;22.30;99.90;;;;;;5086264;28;20065;-73
2023/07/26 06:20:37;;;;;;;3.65;2.30;;;22.70;99.90;;;;;;5107128;28;20015;-75
2023/07/26 06:23:02;;;;;;;6.20;2.50;;;22.60;99.90;;;;;;5104042;28;20031;-72
2023/07/26 06:25:28;;;;;;;4.93;2.58;;;22.50;99.90;;;;;;5112360;28;20031;-73
2023/07/26 06:27:54;;;;;;;3.65;2.10;;;22.40;99.90;;;;;;5112632;28;20458;-72
2023/07/26 06:30:20;;;;;;;5.28;2.90;;;22.50;99.90;;;;;;5112443;28;20038;-74
2023/07/26 06:32:49;;;;;;;4.88;2.83;;;22.20;99.90;;;;;;5112691;28;20039;-73
2023/07/26 06:35:15;;;;;;;4.88;2.67;;;22.10;99.90;;;;;;5112371;28;20019;-73
2023/07/26 06:37:41;;;;;;;6.22;2.58;;;22.00;99.90;;;;;;5112706;28;20084;-72
2023/07/26 06:40:07;;;;;;;4.57;2.60;;;22.00;99.90;;;;;;5112778;28;20024;-73
2023/07/26 06:42:33;;;;;;;4.75;2.55;;;22.00;99.90;;;;;;5112162;28;20406;-72
2023/07/26 06:44:59;;;;;;;3.22;2.47;;;22.00;99.90;;;;;;5112244;28;20019;-75
2023/07/26 06:47:24;;;;;;;5.13;3.10;;;21.80;99.90;;;;;;5112243;28;20386;-74
2023/07/26 06:49:51;;;;;;;7.35;2.90;;;21.90;99.90;;;;;;5112464;28;20038;-73
2023/07/26 06:52:17;;;;;;;7.63;2.97;;;22.00;99.90;;;;;;5112221;28;20027;-74
2023/07/26 06:54:43;;;;;;;5.18;2.50;;;21.90;99.90;;;;;;5110125;28;20382;-74
2023/07/26 06:57:09;;;;;;;3.72;2.28;;;22.00;99.90;;;;;;5104843;28;20032;-73
2023/07/26 06:59:36;;;;;;;5.82;2.40;;;22.10;99.90;;;;;;5104798;28;20020;-73
2023/07/26 07:02:03;;;;;;;4.80;2.50;;;22.00;99.90;;;;;;5111948;28;20487;-72
2023/07/26 07:04:29;;;;;;;4.05;2.60;;;22.00;99.90;;;;;;5112233;28;20034;-74
2023/07/26 07:06:54;;;;;;;6.88;2.92;;;22.00;99.90;;;;;;5112187;28;20094;-73
2023/07/26 07:09:20;;;;;;;4.03;2.63;;;22.10;99.90;;;;;;5110917;28;20114;-74
2023/07/26 07:11:46;;;;;;;4.38;2.45;;;22.10;99.90;;;;;;5111466;28;20019;-73
2023/07/26 07:14:12;;;;;;;14.82;3.08;;;22.10;99.90;;;;;;5111736;28;20054;-73
2023/07/26 07:16:38;;;;;;;6.30;2.70;;;22.20;99.90;;;;;;5115283;28;20110;-73
2023/07/26 07:19:04;;;;;;;6.00;3.10;;;22.20;99.90;;;;;;5115526;28;20107;-74
2023/07/26 07:21:30;;;;;;;4.60;2.70;;;22.30;99.90;;;;;;5116229;28;20024;-73
2023/07/26 07:23:56;;;;;;;5.70;2.95;;;22.20;99.90;;;;;;5115604;28;20024;-74
2023/07/26 07:26:22;;;;;;;6.63;3.03;;;22.30;99.90;;;;;;5115274;28;20102;-75
2023/07/26 07:28:47;;;;;;;5.55;3.10;;;22.30;99.90;;;;;;5114057;28;20028;-74
2023/07/26 07:31:13;;;;;;;8.00;3.13;;;22.40;99.90;;;;;;5109981;28;20027;-74
2023/07/26 07:33:39;;;;;;;5.03;2.85;;;22.40;99.90;;;;;;5115212;28;20041;-75
2023/07/26 07:36:05;;;;;;;4.93;3.17;;;22.50;99.90;;;;;;5104652;28;20011;-72
2023/07/26 07:38:31;;;;;;;5.07;3.05;;;22.30;99.90;;;;;;5115021;28;20394;-74
2023/07/26 07:40:57;;;;;;;4.85;3.03;;;22.30;99.90;;;;;;5103003;28;20037;-75
2023/07/26 07:43:22;;;;;;;4.75;3.25;;;22.30;99.90;;;;;;5115645;28;20040;-74
2023/07/26 07:45:48;;;;;;;7.63;4.82;;;22.50;99.90;;;;;;5115049;28;20030;-73
2023/07/26 07:48:14;;;;;;;7.18;3.60;;;22.30;99.90;;;;;;5104375;28;20356;-73
2023/07/26 07:50:40;;;;;;;6.50;3.40;;;22.40;99.90;;;;;;5114125;28;20022;-73
2023/07/26 07:53:06;;;;;;;3.50;2.85;;;22.20;99.90;;;;;;5112210;28;20023;-73
2023/07/26 07:55:31;;;;;;;7.82;3.60;;;22.20;99.90;;;;;;5102351;28;20451;-73
2023/07/26 07:58:01;;;;;;;5.85;3.63;;;22.20;99.90;;;;;;5106335;28;20422;-73
2023/07/26 08:00:27;;;;;;;7.25;3.58;;;22.20;99.90;;;;;;5111552;28;20030;-73
2023/07/26 08:02:53;;;;;;;6.40;3.22;;;22.20;99.90;;;;;;5112449;28;20088;-73
2023/07/26 08:05:18;;;;;;;3.50;2.70;;;22.20;99.90;;;;;;5106230;28;20024;-71
2023/07/26 08:07:44;;;;;;;5.80;3.20;;;22.20;99.90;;;;;;5116434;28;20062;-73
2023/07/26 08:10:10;;;;;;;5.55;3.10;;;22.20;99.90;;;;;;5112910;28;20020;-73
2023/07/26 08:12:36;;;;;;;6.28;3.15;;;22.10;99.90;;;;;;5092897;28;20052;-73
2023/07/26 08:15:02;;;;;;;5.45;3.05;;;22.00;99.90;;;;;;5115834;28;20153;-73
2023/07/26 08:17:28;;;;;;;5.07;2.95;;;22.10;99.90;;;;;;5115997;28;20379;-73
2023/07/26 08:19:53;;;;;;;5.32;3.35;;;22.20;99.90;;;;;;5132406;27;20015;-72
2023/07/26 08:22:19;;;;;;;4.18;2.28;;;22.20;99.90;;;;;;5136242;27;20080;-72
2023/07/26 08:24:45;;;;;;;7.38;2.75;;;22.10;99.90;;;;;;5136667;27;20030;-73
2023/07/26 08:27:11;;;;;;;4.22;2.63;;;22.10;99.90;;;;;;5135748;27;20031;-73
2023/07/26 08:29:37;;;;;;;3.80;2.35;;;22.20;99.90;;;;;;5124574;27;20055;-73
2023/07/26 08:32:03;;;;;;;5.20;2.72;;;22.30;99.90;;;;;;5111741;28;20409;-73
2023/07/26 08:34:29;;;;;;;8.27;3.35;;;22.40;99.90;;;;;;5096833;28;20058;-73
2023/07/26 08:36:55;;;;;;;8.23;2.78;;;22.50;99.90;;;;;;5095585;28;20059;-73
2023/07/26 08:39:20;;;;;;;4.68;2.53;;;22.50;99.90;;;;;;5095495;28;20016;-72
2023/07/26 08:41:46;;;;;;;6.60;3.00;;;22.60;99.90;;;;;;5094972;28;20056;-72
2023/07/26 08:44:13;;;;;;;5.18;2.47;;;22.50;99.90;;;;;;5095213;28;20046;-73
2023/07/26 08:46:42;;;;;;;4.15;2.88;;;22.50;99.90;;;;;;5114710;28;20106;-72
2023/07/26 08:49:09;;;;;;;11.65;2.80;;;22.60;99.90;;;;;;5108997;28;20460;-73
2023/07/26 08:51:35;;;;;;;5.35;2.70;;;22.70;99.90;;;;;;5107533;28;20035;-72
2023/07/26 08:54:01;;;;;;;5.35;2.85;;;22.90;99.90;;;;;;5114121;28;20020;-73
2023/07/26 08:56:29;;;;;;;6.25;2.60;;;23.10;99.90;;;;;;5084647;28;20039;-72
2023/07/26 08:58:54;;;;;;;4.35;2.45;;;23.20;99.90;;;;;;5105455;28;20064;-73
2023/07/26 09:01:23;;;;;;;4.03;2.67;;;23.10;99.90;;;;;;5113965;28;20110;-71
2023/07/26 09:03:50;;;;;;;5.22;2.60;;;23.20;99.90;;;;;;5107719;28;20486;-73
2023/07/26 09:06:15;;;;;;;3.45;2.08;;;23.00;99.90;;;;;;5115412;28;20068;-73
2023/07/26 09:08:43;;;;;;;3.47;1.85;;;23.20;99.90;;;;;;5106228;28;20036;-73
2023/07/26 09:11:23;;;;;;;3.65;1.98;;;23.30;99.90;;;;;;5108609;28;20023;-73
2023/07/26 09:14:09;;;;;;;3.40;1.90;;;23.60;99.90;;;;;;5113517;28;20028;-73
2023/07/26 09:16:35;;;;;;;4.32;2.17;;;23.80;99.90;;;;;;5082854;28;20102;-73
2023/07/26 09:19:02;;;;;;;3.78;2.28;;;24.00;99.80;;;;;;5108321;28;20111;-73
2023/07/26 09:21:33;;;;;;;4.43;2.25;;;24.10;99.90;;;;;;5105586;28;20023;-72
2023/07/26 09:24:01;;;;;;;4.93;2.50;;;24.10;99.90;;;;;;5114589;28;20036;-73
2023/07/26 09:26:36;;;;;;;6.32;2.20;;;24.20;99.90;;;;;;5114150;28;20015;-72
2023/07/26 09:29:10;;;;;;;2.88;1.92;;;24.10;99.50;;;;;;5103225;28;20062;-73
2023/07/26 09:31:38;;;;;;;4.32;2.10;;;24.30;99.90;;;;;;5112463;28;20016;-72
2023/07/26 09:34:07;;;;;;;4.13;2.15;;;24.60;99.90;;;;;;5114179;28;20027;-72
2023/07/26 09:36:51;;;;;;;3.97;2.15;;;24.60;99.50;;;;;;5100827;28;20047;-73
2023/07/26 09:39:22;;;;;;;4.25;2.35;;;24.60;99.90;;;;;;5114844;28;20032;-73
2023/07/26 09:41:50;;;;;;;3.83;1.90;;;24.70;99.90;;;;;;5113673;28;20047;-72
2023/07/26 09:44:25;;;;;;;4.35;2.35;;;24.60;98.50;;;;;;5114457;28;20031;-73
2023/07/26 09:46:56;;;;;;;1.90;1.60;;;24.70;98.90;;;;;;5084220;28;20016;-72
2023/07/26 09:49:27;;;;;;;6.80;2.60;;;24.70;98.80;;;;;;5104408;28;20036;-72
2023/07/26 09:51:58;;;;;;;3.97;2.00;;;24.90;99.00;;;;;;5114303;28;20027;-72
2023/07/26 09:54:29;;;;;;;4.20;2.20;;;24.80;97.90;;;;;;5114397;28;20466;-72
2023/07/26 09:56:56;;;;;;;2.87;2.00;;;25.00;98.80;;;;;;5114131;28;20272;-72
2023/07/26 09:59:28;;;;;;;4.55;2.30;;;25.30;98.40;;;;;;5114280;28;20367;-74
2023/07/26 10:01:56;;;;;;;5.07;2.03;;;24.80;98.40;;;;;;5106006;28;20020;-73
2023/07/26 10:04:25;;;;;;;3.75;2.22;;;25.00;97.10;;;;;;5113333;28;20267;-73
2023/07/26 10:06:53;;;;;;;6.03;2.60;;;25.20;97.00;;;;;;5102058;28;20390;-73
2023/07/26 10:09:21;;;;;;;5.03;2.53;;;25.40;97.80;;;;;;5095659;28;20099;-73
2023/07/26 10:11:47;;;;;;;2.72;1.77;;;25.60;97.40;;;;;;5094815;28;20401;-73
2023/07/26 10:14:15;;;;;;;3.08;1.70;;;25.30;95.70;;;;;;5110694;28;20230;-73
2023/07/26 10:16:41;;;;;;;3.03;1.83;;;25.40;95.30;;;;;;5106622;28;20794;-72
2023/07/26 10:19:08;;;;;;;3.25;1.88;;;25.20;95.20;;;;;;5113435;28;20101;-73
2023/07/26 10:21:38;;;;;;;3.33;2.10;;;25.20;95.50;;;;;;5099172;28;20059;-73
2023/07/26 10:24:04;;;;;;;5.07;2.08;;;25.20;96.70;;;;;;5113008;28;20034;-73
2023/07/26 10:26:33;;;;;;;4.20;2.10;;;24.80;98.00;;;;;;5100866;28;20028;-72
2023/07/26 10:29:00;;;;;;;4.93;2.15;;;24.80;98.30;;;;;;5097434;28;20024;-72
2023/07/26 10:31:26;;;;;;;4.05;1.83;;;24.90;98.00;;;;;;5104759;28;20032;-72
2023/07/26 10:33:56;;;;;;;3.70;1.95;;;24.80;97.10;;;;;;5100487;28;20502;-73
2023/07/26 10:36:28;;;;;;;7.22;1.90;;;24.40;96.90;;;;;;5104598;28;20028;-74
2023/07/26 10:38:54;;;;;;;4.45;2.50;;;24.60;97.40;;;;;;5113756;28;20505;-72
2023/07/26 10:41:25;;;;;;;3.33;1.73;;;24.70;96.70;;;;;;5113445;28;20507;-73
2023/07/26 10:44:21;;;;;;;3.40;1.92;;;24.70;96.80;;;;;;5113476;28;20051;-73
2023/07/26 10:47:02;;;;;;;5.60;1.90;;;24.70;96.90;;;;;;5035375;28;20111;-72
2023/07/26 10:49:33;;;;;;;3.42;1.80;;;24.60;97.60;;;;;;5033737;28;20513;-73
2023/07/26 10:52:03;;;;;;;2.58;1.58;;;24.70;97.30;;;;;;5051065;28;20078;-73
2023/07/26 10:54:52;;;;;;;3.63;1.67;;;24.80;97.30;;;;;;5033097;28;20022;-73
2023/07/26 10:57:36;;;;;;;3.05;1.58;;;25.00;97.70;;;;;;5030951;28;20038;-72
2023/07/26 11:00:06;;;;;;;3.67;1.77;;;24.90;95.20;;;;;;5014499;28;20033;-73
2023/07/26 11:02:38;;;;;;;4.47;2.33;;;24.80;95.90;;;;;;5029491;28;20069;-73
2023/07/26 11:05:09;;;;;;;2.75;1.83;;;24.60;96.00;;;;;;5029997;28;20087;-72
2023/07/26 11:07:58;;;;;;;3.25;2.10;;;24.50;97.00;;;;;;5030830;28;20037;-73
2023/07/26 11:10:31;;;;;;;3.80;2.03;;;24.30;96.80;;;;;;5030444;28;20061;-72
2023/07/26 11:13:10;;;;;;;2.78;1.67;;;24.30;96.60;;;;;;5031003;28;20471;-73
2023/07/26 11:15:42;;;;;;;3.92;1.77;;;24.50;96.80;;;;;;5030585;28;20464;-74
2023/07/26 11:18:09;;;;;;;4.78;1.67;;;24.50;96.60;;;;;;5030469;28;20567;-73
2023/07/26 11:20:39;;;;;;;4.35;1.80;;;24.80;97.80;;;;;;5030429;28;20022;-72
2023/07/26 11:23:16;;;;;;;7.70;1.45;;;24.80;97.20;;;;;;5054643;28;20060;-73
2023/07/26 11:25:42;;;;;;;4.13;1.70;;;24.70;94.80;;;;;;5100155;28;20019;-72
2023/07/26 11:28:08;;;;;;;5.18;1.77;;;24.40;95.90;;;;;;5112971;28;20081;-73
2023/07/26 11:30:38;;;;;;;4.22;1.52;;;24.50;95.90;;;;;;5113257;28;20106;-74
2023/07/26 11:33:04;;;;;;;2.22;1.60;;;24.60;96.10;;;;;;5112326;28;20024;-73
2023/07/26 11:35:42;;;;;;;2.25;1.40;;;24.50;96.30;;;;;;5113028;28;20110;-72
2023/07/26 11:38:13;;;;;;;5.18;2.20;;;24.70;96.30;;;;;;5099013;28;20021;-72
2023/07/26 11:40:43;;;;;;;7.88;3.90;;;24.60;96.10;;;;;;5112481;28;20093;-73
2023/07/26 11:43:10;;;;;;;4.80;1.50;;;24.80;96.10;;;;;;5084767;28;20044;-73
2023/07/26 11:45:40;;;;;;;4.80;1.70;;;25.00;95.60;;;;;;5103501;28;20413;-73
2023/07/26 11:48:09;;;;;;;1.75;1.20;;;25.00;96.10;;;;;;5107493;28;20031;-73
2023/07/26 11:50:35;;;;;;;2.05;1.23;;;24.80;94.80;;;;;;5098670;28;20008;-72
2023/07/26 11:53:04;;;;;;;3.78;1.70;;;24.90;95.70;;;;;;5112301;28;20020;-74
2023/07/26 11:55:31;;;;;;;1.65;1.25;;;24.80;95.30;;;;;;5112757;28;20493;-73
2023/07/26 11:58:04;;;;;;;2.28;1.13;;;25.00;94.60;;;;;;5112997;28;20035;-72
2023/07/26 12:00:33;;;;;;;2.35;1.30;;;24.80;94.50;;;;;;5112929;28;20026;-72
2023/07/26 12:03:01;;;;;;;2.10;1.17;;;24.80;95.50;;;;;;5112891;28;20035;-72
2023/07/26 12:05:30;;;;;;;3.28;1.35;;;24.70;94.60;;;;;;5115831;28;20024;-72
2023/07/26 12:08:01;;;;;;;6.60;1.38;;;24.90;95.60;;;;;;5115874;28;20046;-72
2023/07/26 12:10:27;;;;;;;1.45;1.35;;;25.00;95.80;;;;;;5115681;28;20020;-72
2023/07/26 12:12:53;;;;;;;2.63;1.52;;;25.30;95.50;;;;;;5114546;28;20111;-73
2023/07/26 12:15:19;;;;;;;1.92;1.10;;;25.50;95.80;;;;;;5114807;28;20103;-72
2023/07/26 12:17:55;;;;;;;2.17;1.30;;;25.50;95.10;;;;;;5112395;28;20367;-72
2023/07/26 12:20:23;;;;;;;2.13;1.27;;;25.50;94.80;;;;;;5114892;28;20069;-72
2023/07/26 12:22:54;;;;;;;3.15;1.27;;;25.20;94.30;;;;;;5114439;28;20144;-72
2023/07/26 12:25:21;;;;;;;2.53;1.15;;;25.40;95.00;;;;;;5115009;28;20027;-74
2023/07/26 12:27:49;;;;;;;2.25;1.23;;;25.10;93.40;;;;;;5114460;28;20030;-72
2023/07/26 12:30:18;;;;;;;2.47;1.20;;;24.90;93.90;;;;;;5116105;28;20386;-73
2023/07/26 12:32:44;;;;;;;3.08;1.60;;;25.00;92.70;;;;;;5115932;28;20015;-73
2023/07/26 12:35:22;;;;;;;1.73;1.10;;;25.00;93.80;;;;;;5115816;28;20028;-72
2023/07/26 12:37:52;;;;;;;6.15;1.27;;;25.10;94.20;;;;;;5116001;28;20032;-73
2023/07/26 12:40:21;;;;;;;2.03;1.40;;;25.00;93.60;;;;;;5115575;28;20420;-73
2023/07/26 12:42:47;;;;;;;1.75;1.02;;;25.10;93.00;;;;;;5089600;28;20091;-72
2023/07/26 12:45:13;;;;;;;3.92;1.30;;;25.10;93.90;;;;;;5096561;28;20056;-72
2023/07/26 12:47:40;;;;;;;1.77;0.93;;;24.90;93.50;;;;;;5115657;28;20111;-73